sensor_id;sensor_type;location;lat;lon;timestamp;pressure;altitude;pressure_sealevel;temperature;humidity
48089;BME280;33867;50.314;7.802;2023-03-19T00:02:29;100053.56;;;8.85;nan
48089;BME280;33867;50.314;7.802;2023-03-19T00:05:51;100060.75;;;8.65;nan
48089;BME280;33867;50.314;7.802;2023-03-19T00:09:11;100063.56;;;8.73;nan
48089;BME280;33867;50.314;7.802;2023-03-19T00:12:30;100066.84;;;8.77;nan
48089;BME280;33867;50.314;7.802;2023-03-19T00:15:49;100056.38;;;8.84;nan
48089;BME280;33867;50.314;7.802;2023-03-19T00:19:08;100067.81;;;8.76;nan
48089;BME280;33867;50.314;7.802;2023-03-19T00:22:27;100068.41;;;8.79;nan
48089;BME280;33867;50.314;7.802;2023-03-19T00:25:46;100066.41;;;8.72;nan
48089;BME280;33867;50.314;7.802;2023-03-19T00:29:05;100066.50;;;8.61;nan
48089;BME280;33867;50.314;7.802;2023-03-19T00:32:25;100071.50;;;8.65;nan
48089;BME280;33867;50.314;7.802;2023-03-19T00:35:44;100071.78;;;8.72;nan
48089;BME280;33867;50.314;7.802;2023-03-19T00:39:03;100070.50;;;8.76;nan
48089;BME280;33867;50.314;7.802;2023-03-19T00:42:22;100071.78;;;8.82;nan
48089;BME280;33867;50.314;7.802;2023-03-19T00:45:41;100069.66;;;8.66;nan
48089;BME280;33867;50.314;7.802;2023-03-19T00:49:00;100081.50;;;8.73;nan
48089;BME280;33867;50.314;7.802;2023-03-19T00:52:19;100071.75;;;8.62;nan
48089;BME280;33867;50.314;7.802;2023-03-19T00:55:39;100074.56;;;8.61;nan
48089;BME280;33867;50.314;7.802;2023-03-19T00:58:58;100072.16;;;8.58;nan
48089;BME280;33867;50.314;7.802;2023-03-19T01:02:18;100076.31;;;8.81;nan
48089;BME280;33867;50.314;7.802;2023-03-19T01:05:36;100084.19;;;8.73;nan
48089;BME280;33867;50.314;7.802;2023-03-19T01:08:55;100085.06;;;8.83;nan
48089;BME280;33867;50.314;7.802;2023-03-19T01:12:17;100091.72;;;8.79;nan
48089;BME280;33867;50.314;7.802;2023-03-19T01:15:42;100085.50;;;8.78;nan
48089;BME280;33867;50.314;7.802;2023-03-19T01:19:01;100084.50;;;8.79;nan
48089;BME280;33867;50.314;7.802;2023-03-19T01:22:21;100083.34;;;8.72;nan
48089;BME280;33867;50.314;7.802;2023-03-19T01:25:46;100090.28;;;8.75;nan
48089;BME280;33867;50.314;7.802;2023-03-19T01:29:05;100091.25;;;8.74;nan
48089;BME280;33867;50.314;7.802;2023-03-19T01:32:24;100087.88;;;8.72;nan
48089;BME280;33867;50.314;7.802;2023-03-19T01:35:58;100084.91;;;8.65;nan
48089;BME280;33867;50.314;7.802;2023-03-19T01:39:25;100083.78;;;8.68;nan
48089;BME280;33867;50.314;7.802;2023-03-19T01:42:56;100086.19;;;8.71;nan
48089;BME280;33867;50.314;7.802;2023-03-19T01:46:38;100092.34;;;8.52;nan
48089;BME280;33867;50.314;7.802;2023-03-19T01:50:24;100090.63;;;8.41;nan
48089;BME280;33867;50.314;7.802;2023-03-19T01:54:10;100086.69;;;8.45;nan
48089;BME280;33867;50.314;7.802;2023-03-19T01:57:38;100091.38;;;8.63;nan
48089;BME280;33867;50.314;7.802;2023-03-19T02:01:16;100088.41;;;8.56;nan
48089;BME280;33867;50.314;7.802;2023-03-19T02:04:40;100082.59;;;8.41;nan
48089;BME280;33867;50.314;7.802;2023-03-19T02:08:06;100086.97;;;8.42;nan
48089;BME280;33867;50.314;7.802;2023-03-19T02:11:32;100080.19;;;8.48;nan
48089;BME280;33867;50.314;7.802;2023-03-19T02:14:52;100079.50;;;8.56;nan
48089;BME280;33867;50.314;7.802;2023-03-19T02:18:11;100083.81;;;8.37;nan
48089;BME280;33867;50.314;7.802;2023-03-19T02:21:31;100081.84;;;8.39;nan
48089;BME280;33867;50.314;7.802;2023-03-19T02:25:00;100084.19;;;8.54;nan
48089;BME280;33867;50.314;7.802;2023-03-19T02:28:21;100089.72;;;8.31;nan
48089;BME280;33867;50.314;7.802;2023-03-19T02:31:44;100083.53;;;8.40;nan
48089;BME280;33867;50.314;7.802;2023-03-19T02:35:04;100087.28;;;8.28;nan
48089;BME280;33867;50.314;7.802;2023-03-19T02:38:24;100079.44;;;8.06;nan
48089;BME280;33867;50.314;7.802;2023-03-19T02:41:44;100080.03;;;8.09;nan
48089;BME280;33867;50.314;7.802;2023-03-19T02:45:10;100087.31;;;7.98;nan
48089;BME280;33867;50.314;7.802;2023-03-19T02:48:29;100089.72;;;7.70;nan
48089;BME280;33867;50.314;7.802;2023-03-19T02:51:50;100093.75;;;7.65;nan
48089;BME280;33867;50.314;7.802;2023-03-19T02:55:09;100089.72;;;7.70;nan
48089;BME280;33867;50.314;7.802;2023-03-19T02:58:28;100094.31;;;7.68;nan
48089;BME280;33867;50.314;7.802;2023-03-19T03:01:47;100107.41;;;7.61;nan
48089;BME280;33867;50.314;7.802;2023-03-19T03:05:06;100102.91;;;7.62;nan
48089;BME280;33867;50.314;7.802;2023-03-19T03:08:25;100095.91;;;7.50;nan
48089;BME280;33867;50.314;7.802;2023-03-19T03:11:46;100101.28;;;7.50;nan
48089;BME280;33867;50.314;7.802;2023-03-19T03:15:06;100112.44;;;7.55;nan
48089;BME280;33867;50.314;7.802;2023-03-19T03:18:26;100112.75;;;7.41;nan
48089;BME280;33867;50.314;7.802;2023-03-19T03:21:48;100110.34;;;7.06;nan
48089;BME280;33867;50.314;7.802;2023-03-19T03:25:10;100109.50;;;7.05;nan
48089;BME280;33867;50.314;7.802;2023-03-19T03:28:29;100109.88;;;7.00;nan
48089;BME280;33867;50.314;7.802;2023-03-19T03:31:48;100110.78;;;6.90;nan
48089;BME280;33867;50.314;7.802;2023-03-19T03:35:07;100115.91;;;6.82;nan
48089;BME280;33867;50.314;7.802;2023-03-19T03:38:26;100104.22;;;6.71;nan
48089;BME280;33867;50.314;7.802;2023-03-19T03:41:46;100102.41;;;6.72;nan
48089;BME280;33867;50.314;7.802;2023-03-19T03:45:12;100105.63;;;6.55;nan
48089;BME280;33867;50.314;7.802;2023-03-19T03:48:36;100101.38;;;6.52;nan
48089;BME280;33867;50.314;7.802;2023-03-19T03:51:55;100103.94;;;6.42;nan
48089;BME280;33867;50.314;7.802;2023-03-19T03:55:15;100107.72;;;6.40;nan
48089;BME280;33867;50.314;7.802;2023-03-19T03:58:34;100101.59;;;6.38;nan
48089;BME280;33867;50.314;7.802;2023-03-19T04:01:54;100102.72;;;6.02;nan
48089;BME280;33867;50.314;7.802;2023-03-19T04:05:12;100112.31;;;6.15;nan
48089;BME280;33867;50.314;7.802;2023-03-19T04:12:58;100115.88;;;6.16;nan
48089;BME280;33867;50.314;7.802;2023-03-19T04:16:19;100121.22;;;6.05;nan
48089;BME280;33867;50.314;7.802;2023-03-19T04:19:39;100133.34;;;5.98;nan
48089;BME280;33867;50.314;7.802;2023-03-19T04:22:58;100127.13;;;5.97;nan
48089;BME280;33867;50.314;7.802;2023-03-19T04:26:17;100140.50;;;6.08;nan
48089;BME280;33867;50.314;7.802;2023-03-19T04:29:36;100130.81;;;6.19;nan
48089;BME280;33867;50.314;7.802;2023-03-19T04:32:55;100127.41;;;6.17;nan
48089;BME280;33867;50.314;7.802;2023-03-19T04:36:14;100129.84;;;6.20;nan
48089;BME280;33867;50.314;7.802;2023-03-19T04:39:35;100132.25;;;6.23;nan
48089;BME280;33867;50.314;7.802;2023-03-19T04:42:55;100124.47;;;6.08;nan
48089;BME280;33867;50.314;7.802;2023-03-19T04:46:25;100133.22;;;6.22;nan
48089;BME280;33867;50.314;7.802;2023-03-19T04:49:44;100130.94;;;6.28;nan
48089;BME280;33867;50.314;7.802;2023-03-19T04:53:03;100135.44;;;6.28;nan
48089;BME280;33867;50.314;7.802;2023-03-19T04:56:23;100142.59;;;6.16;nan
48089;BME280;33867;50.314;7.802;2023-03-19T04:59:41;100140.16;;;6.13;nan
48089;BME280;33867;50.314;7.802;2023-03-19T05:03:03;100144.16;;;6.07;nan
48089;BME280;33867;50.314;7.802;2023-03-19T05:06:23;100148.03;;;6.14;nan
48089;BME280;33867;50.314;7.802;2023-03-19T05:09:46;100157.53;;;6.07;nan
48089;BME280;33867;50.314;7.802;2023-03-19T05:13:07;100156.47;;;5.86;nan
48089;BME280;33867;50.314;7.802;2023-03-19T05:16:31;100149.97;;;6.01;nan
48089;BME280;33867;50.314;7.802;2023-03-19T05:19:52;100159.94;;;6.10;nan
48089;BME280;33867;50.314;7.802;2023-03-19T05:23:11;100160.94;;;6.09;nan
48089;BME280;33867;50.314;7.802;2023-03-19T05:26:39;100169.22;;;6.18;nan
48089;BME280;33867;50.314;7.802;2023-03-19T05:30:18;100173.09;;;6.25;nan
48089;BME280;33867;50.314;7.802;2023-03-19T05:33:40;100178.69;;;6.22;nan
48089;BME280;33867;50.314;7.802;2023-03-19T05:37:00;100175.88;;;6.23;nan
48089;BME280;33867;50.314;7.802;2023-03-19T05:40:28;100176.88;;;6.33;nan
48089;BME280;33867;50.314;7.802;2023-03-19T05:44:20;100181.63;;;6.41;nan
48089;BME280;33867;50.314;7.802;2023-03-19T05:47:57;100183.06;;;6.34;nan
48089;BME280;33867;50.314;7.802;2023-03-19T05:51:25;100186.09;;;6.18;nan
48089;BME280;33867;50.314;7.802;2023-03-19T05:54:44;100177.22;;;6.18;nan
48089;BME280;33867;50.314;7.802;2023-03-19T05:58:27;100180.63;;;6.42;nan
48089;BME280;33867;50.314;7.802;2023-03-19T06:01:47;100170.78;;;6.54;nan
48089;BME280;33867;50.314;7.802;2023-03-19T06:05:07;100174.53;;;6.73;nan
48089;BME280;33867;50.314;7.802;2023-03-19T06:08:26;100185.47;;;6.70;nan
48089;BME280;33867;50.314;7.802;2023-03-19T06:11:56;100188.88;;;6.61;nan
48089;BME280;33867;50.314;7.802;2023-03-19T06:15:47;100192.66;;;6.81;nan
48089;BME280;33867;50.314;7.802;2023-03-19T06:19:21;100189.25;;;6.79;nan
48089;BME280;33867;50.314;7.802;2023-03-19T06:22:40;100189.25;;;6.90;nan
48089;BME280;33867;50.314;7.802;2023-03-19T06:26:00;100194.91;;;7.08;nan
48089;BME280;33867;50.314;7.802;2023-03-19T06:29:24;100198.31;;;7.10;nan
48089;BME280;33867;50.314;7.802;2023-03-19T06:32:50;100193.91;;;7.20;nan
48089;BME280;33867;50.314;7.802;2023-03-19T06:36:12;100206.19;;;7.34;nan
48089;BME280;33867;50.314;7.802;2023-03-19T06:39:32;100210.19;;;7.28;nan
48089;BME280;33867;50.314;7.802;2023-03-19T06:42:51;100201.59;;;7.46;nan
48089;BME280;33867;50.314;7.802;2023-03-19T06:46:13;100208.47;;;7.71;nan
48089;BME280;33867;50.314;7.802;2023-03-19T06:49:32;100202.09;;;7.51;nan
48089;BME280;33867;50.314;7.802;2023-03-19T06:52:51;100203.44;;;7.45;nan
48089;BME280;33867;50.314;7.802;2023-03-19T06:56:29;100216.88;;;7.66;nan
48089;BME280;33867;50.314;7.802;2023-03-19T06:59:48;100220.34;;;7.78;nan
48089;BME280;33867;50.314;7.802;2023-03-19T07:03:08;100215.22;;;7.54;nan
48089;BME280;33867;50.314;7.802;2023-03-19T07:06:27;100220.09;;;7.81;nan
48089;BME280;33867;50.314;7.802;2023-03-19T07:09:46;100214.75;;;8.02;nan
48089;BME280;33867;50.314;7.802;2023-03-19T07:13:05;100214.53;;;8.14;nan
48089;BME280;33867;50.314;7.802;2023-03-19T07:16:24;100219.91;;;8.14;nan
48089;BME280;33867;50.314;7.802;2023-03-19T07:19:43;100219.91;;;8.14;nan
48089;BME280;33867;50.314;7.802;2023-03-19T07:23:06;100217.91;;;8.07;nan
48089;BME280;33867;50.314;7.802;2023-03-19T07:26:25;100213.81;;;8.33;nan
48089;BME280;33867;50.314;7.802;2023-03-19T07:29:44;100221.34;;;8.39;nan
48089;BME280;33867;50.314;7.802;2023-03-19T07:33:25;100224.06;;;8.28;nan
48089;BME280;33867;50.314;7.802;2023-03-19T07:37:30;100220.88;;;8.13;nan
48089;BME280;33867;50.314;7.802;2023-03-19T07:40:50;100226.06;;;7.84;nan
48089;BME280;33867;50.314;7.802;2023-03-19T07:44:09;100234.03;;;7.96;nan
48089;BME280;33867;50.314;7.802;2023-03-19T07:47:29;100231.81;;;8.21;nan
48089;BME280;33867;50.314;7.802;2023-03-19T07:50:51;100233.00;;;8.49;nan
48089;BME280;33867;50.314;7.802;2023-03-19T07:54:10;100231.03;;;8.52;nan
48089;BME280;33867;50.314;7.802;2023-03-19T07:57:38;100238.13;;;8.53;nan
48089;BME280;33867;50.314;7.802;2023-03-19T08:00:58;100240.25;;;8.59;nan
48089;BME280;33867;50.314;7.802;2023-03-19T08:04:17;100240.50;;;8.76;nan
48089;BME280;33867;50.314;7.802;2023-03-19T08:07:36;100244.50;;;8.40;nan
48089;BME280;33867;50.314;7.802;2023-03-19T08:10:56;100235.03;;;8.57;nan
48089;BME280;33867;50.314;7.802;2023-03-19T08:14:15;100241.22;;;8.58;nan
48089;BME280;33867;50.314;7.802;2023-03-19T08:17:39;100244.91;;;8.57;nan
48089;BME280;33867;50.314;7.802;2023-03-19T08:20:58;100250.63;;;8.73;nan
48089;BME280;33867;50.314;7.802;2023-03-19T08:24:18;100252.13;;;8.96;nan
48089;BME280;33867;50.314;7.802;2023-03-19T08:27:37;100251.75;;;9.11;nan
48089;BME280;33867;50.314;7.802;2023-03-19T08:30:56;100246.28;;;9.12;nan
48089;BME280;33867;50.314;7.802;2023-03-19T08:34:15;100256.19;;;9.31;nan
48089;BME280;33867;50.314;7.802;2023-03-19T08:37:34;100260.16;;;9.27;nan
48089;BME280;33867;50.314;7.802;2023-03-19T08:40:55;100260.84;;;9.19;nan
48089;BME280;33867;50.314;7.802;2023-03-19T08:44:19;100254.13;;;9.63;nan
48089;BME280;33867;50.314;7.802;2023-03-19T08:47:38;100252.59;;;10.09;nan
48089;BME280;33867;50.314;7.802;2023-03-19T08:50:59;100255.38;;;10.46;nan
48089;BME280;33867;50.314;7.802;2023-03-19T08:54:19;100258.44;;;10.61;nan
48089;BME280;33867;50.314;7.802;2023-03-19T08:57:39;100259.25;;;10.81;nan
48089;BME280;33867;50.314;7.802;2023-03-19T09:01:06;100256.44;;;10.73;nan
48089;BME280;33867;50.314;7.802;2023-03-19T09:04:31;100262.59;;;10.93;nan
48089;BME280;33867;50.314;7.802;2023-03-19T09:07:55;100258.56;;;10.69;nan
48089;BME280;33867;50.314;7.802;2023-03-19T09:11:14;100258.69;;;10.77;nan
48089;BME280;33867;50.314;7.802;2023-03-19T09:14:35;100258.56;;;11.06;nan
48089;BME280;33867;50.314;7.802;2023-03-19T09:17:57;100266.66;;;10.69;nan
48089;BME280;33867;50.314;7.802;2023-03-19T09:21:17;100271.50;;;10.66;nan
48089;BME280;33867;50.314;7.802;2023-03-19T09:24:36;100279.94;;;10.80;nan
48089;BME280;33867;50.314;7.802;2023-03-19T09:28:17;100266.59;;;11.16;nan
48089;BME280;33867;50.314;7.802;2023-03-19T09:35:52;100284.78;;;11.41;nan
48089;BME280;33867;50.314;7.802;2023-03-19T09:39:25;100286.72;;;11.49;nan
48089;BME280;33867;50.314;7.802;2023-03-19T09:46:23;100281.44;;;11.48;nan
48089;BME280;33867;50.314;7.802;2023-03-19T09:49:46;100294.41;;;12.25;nan
48089;BME280;33867;50.314;7.802;2023-03-19T09:56:34;100282.03;;;12.66;nan
48089;BME280;33867;50.314;7.802;2023-03-19T09:59:58;100290.47;;;12.89;nan
48089;BME280;33867;50.314;7.802;2023-03-19T10:03:44;100289.94;;;12.16;nan
48089;BME280;33867;50.314;7.802;2023-03-19T10:07:56;100283.53;;;12.86;nan
48089;BME280;33867;50.314;7.802;2023-03-19T10:15:16;100286.53;;;13.43;nan
48089;BME280;33867;50.314;7.802;2023-03-19T10:18:36;100278.28;;;13.61;nan
48089;BME280;33867;50.314;7.802;2023-03-19T10:22:02;100277.97;;;13.72;nan
48089;BME280;33867;50.314;7.802;2023-03-19T10:25:27;100291.22;;;13.92;nan
48089;BME280;33867;50.314;7.802;2023-03-19T10:29:00;100278.03;;;13.89;nan
48089;BME280;33867;50.314;7.802;2023-03-19T10:32:43;100280.44;;;14.24;nan
48089;BME280;33867;50.314;7.802;2023-03-19T10:36:06;100282.44;;;14.39;nan
48089;BME280;33867;50.314;7.802;2023-03-19T10:39:29;100277.38;;;14.52;nan
48089;BME280;33867;50.314;7.802;2023-03-19T10:43:03;100281.78;;;14.61;nan
48089;BME280;33867;50.314;7.802;2023-03-19T10:46:24;100278.00;;;14.78;nan
48089;BME280;33867;50.314;7.802;2023-03-19T10:49:43;100266.63;;;14.99;nan
48089;BME280;33867;50.314;7.802;2023-03-19T10:53:06;100267.22;;;14.62;nan
48089;BME280;33867;50.314;7.802;2023-03-19T10:56:44;100272.91;;;14.91;nan
48089;BME280;33867;50.314;7.802;2023-03-19T11:00:25;100268.66;;;14.97;nan
48089;BME280;33867;50.314;7.802;2023-03-19T11:04:17;100276.25;;;15.02;nan
48089;BME280;33867;50.314;7.802;2023-03-19T11:07:37;100280.34;;;15.06;nan
48089;BME280;33867;50.314;7.802;2023-03-19T11:10:56;100276.13;;;14.95;nan
48089;BME280;33867;50.314;7.802;2023-03-19T11:14:18;100281.44;;;14.72;nan
48089;BME280;33867;50.314;7.802;2023-03-19T11:17:47;100285.53;;;14.60;nan
48089;BME280;33867;50.314;7.802;2023-03-19T11:21:21;100285.50;;;14.27;nan
48089;BME280;33867;50.314;7.802;2023-03-19T11:24:47;100287.84;;;14.06;nan
48089;BME280;33867;50.314;7.802;2023-03-19T11:28:11;100294.72;;;13.68;nan
48089;BME280;33867;50.314;7.802;2023-03-19T11:31:47;100320.69;;;13.44;nan
48089;BME280;33867;50.314;7.802;2023-03-19T11:35:19;100326.34;;;12.99;nan
48089;BME280;33867;50.314;7.802;2023-03-19T11:50:02;100343.28;;;11.86;nan
48089;BME280;33867;50.314;7.802;2023-03-19T12:01:03;100323.41;;;11.87;nan
48089;BME280;33867;50.314;7.802;2023-03-19T12:08:38;100311.25;;;11.74;nan
48089;BME280;33867;50.314;7.802;2023-03-19T12:12:12;100310.50;;;11.81;nan
48089;BME280;33867;50.314;7.802;2023-03-19T12:19:46;100310.38;;;12.62;nan
48089;BME280;33867;50.314;7.802;2023-03-19T12:23:20;100304.94;;;13.06;nan
48089;BME280;33867;50.314;7.802;2023-03-19T12:27:06;100303.94;;;12.81;nan
48089;BME280;33867;50.314;7.802;2023-03-19T12:30:49;100307.47;;;13.07;nan
48089;BME280;33867;50.314;7.802;2023-03-19T12:34:21;100311.13;;;13.24;nan
48089;BME280;33867;50.314;7.802;2023-03-19T12:37:57;100313.81;;;13.24;nan
48089;BME280;33867;50.314;7.802;2023-03-19T12:41:23;100303.06;;;12.11;nan
48089;BME280;33867;50.314;7.802;2023-03-19T12:44:49;100301.84;;;12.49;nan
48089;BME280;33867;50.314;7.802;2023-03-19T12:48:19;100312.13;;;12.45;nan
48089;BME280;33867;50.314;7.802;2023-03-19T12:51:45;100303.34;;;12.43;nan
48089;BME280;33867;50.314;7.802;2023-03-19T12:55:34;100302.50;;;12.69;nan
48089;BME280;33867;50.314;7.802;2023-03-19T12:59:06;100305.19;;;12.25;nan
48089;BME280;33867;50.314;7.802;2023-03-19T13:06:36;100304.88;;;12.28;nan
48089;BME280;33867;50.314;7.802;2023-03-19T13:10:04;100302.59;;;12.85;nan
48089;BME280;33867;50.314;7.802;2023-03-19T13:13:44;100300.69;;;13.29;nan
48089;BME280;33867;50.314;7.802;2023-03-19T13:17:24;100296.91;;;13.22;nan
48089;BME280;33867;50.314;7.802;2023-03-19T13:21:23;100289.88;;;14.28;nan
48089;BME280;33867;50.314;7.802;2023-03-19T13:24:51;100289.03;;;15.40;nan
48089;BME280;33867;50.314;7.802;2023-03-19T13:28:17;100282.25;;;16.21;nan
48089;BME280;33867;50.314;7.802;2023-03-19T13:31:38;100289.47;;;16.52;nan
48089;BME280;33867;50.314;7.802;2023-03-19T13:35:41;100284.78;;;15.77;nan
48089;BME280;33867;50.314;7.802;2023-03-19T13:39:01;100291.13;;;15.22;nan
48089;BME280;33867;50.314;7.802;2023-03-19T13:42:37;100282.38;;;15.04;nan
48089;BME280;33867;50.314;7.802;2023-03-19T13:49:35;100275.13;;;17.10;nan
48089;BME280;33867;50.314;7.802;2023-03-19T13:53:19;100272.34;;;15.83;nan
48089;BME280;33867;50.314;7.802;2023-03-19T14:04:06;100263.13;;;16.90;nan
48089;BME280;33867;50.314;7.802;2023-03-19T14:10:59;100267.38;;;16.32;nan
48089;BME280;33867;50.314;7.802;2023-03-19T14:14:20;100254.56;;;16.26;nan
48089;BME280;33867;50.314;7.802;2023-03-19T14:17:49;100258.38;;;15.24;nan
48089;BME280;33867;50.314;7.802;2023-03-19T14:21:16;100255.47;;;15.33;nan
48089;BME280;33867;50.314;7.802;2023-03-19T14:25:15;100252.59;;;14.79;nan
48089;BME280;33867;50.314;7.802;2023-03-19T14:32:06;100245.06;;;14.58;nan
48089;BME280;33867;50.314;7.802;2023-03-19T14:35:34;100242.22;;;14.99;nan
48089;BME280;33867;50.314;7.802;2023-03-19T14:39:22;100234.47;;;15.27;nan
48089;BME280;33867;50.314;7.802;2023-03-19T14:42:58;100239.59;;;15.14;nan
48089;BME280;33867;50.314;7.802;2023-03-19T14:46:46;100250.47;;;14.10;nan
48089;BME280;33867;50.314;7.802;2023-03-19T14:53:40;100258.22;;;13.88;nan
48089;BME280;33867;50.314;7.802;2023-03-19T14:57:13;100257.81;;;13.59;nan
48089;BME280;33867;50.314;7.802;2023-03-19T15:00:43;100255.66;;;13.70;nan
48089;BME280;33867;50.314;7.802;2023-03-19T15:04:09;100252.13;;;13.94;nan
48089;BME280;33867;50.314;7.802;2023-03-19T15:07:33;100244.88;;;14.36;nan
48089;BME280;33867;50.314;7.802;2023-03-19T15:15:14;100236.75;;;15.15;nan
48089;BME280;33867;50.314;7.802;2023-03-19T15:18:35;100238.06;;;15.19;nan
48089;BME280;33867;50.314;7.802;2023-03-19T15:25:30;100227.00;;;14.90;nan
48089;BME280;33867;50.314;7.802;2023-03-19T15:28:50;100229.94;;;14.72;nan
48089;BME280;33867;50.314;7.802;2023-03-19T15:32:09;100236.03;;;14.74;nan
48089;BME280;33867;50.314;7.802;2023-03-19T15:35:34;100247.53;;;14.76;nan
48089;BME280;33867;50.314;7.802;2023-03-19T15:38:57;100238.72;;;14.82;nan
48089;BME280;33867;50.314;7.802;2023-03-19T15:42:20;100243.19;;;14.34;nan
48089;BME280;33867;50.314;7.802;2023-03-19T15:45:45;100243.47;;;13.58;nan
48089;BME280;33867;50.314;7.802;2023-03-19T15:49:24;100246.56;;;14.20;nan
48089;BME280;33867;50.314;7.802;2023-03-19T15:52:52;100246.22;;;14.40;nan
48089;BME280;33867;50.314;7.802;2023-03-19T15:56:16;100255.88;;;14.58;nan
48089;BME280;33867;50.314;7.802;2023-03-19T15:59:36;100257.41;;;14.61;nan
48089;BME280;33867;50.314;7.802;2023-03-19T16:02:55;100255.72;;;14.60;nan
48089;BME280;33867;50.314;7.802;2023-03-19T16:06:41;100258.25;;;14.29;nan
48089;BME280;33867;50.314;7.802;2023-03-19T16:10:00;100265.16;;;14.31;nan
48089;BME280;33867;50.314;7.802;2023-03-19T16:13:38;100271.75;;;13.80;nan
48089;BME280;33867;50.314;7.802;2023-03-19T16:17:02;100281.44;;;13.06;nan
48089;BME280;33867;50.314;7.802;2023-03-19T16:20:28;100279.91;;;12.78;nan
48089;BME280;33867;50.314;7.802;2023-03-19T16:24:24;100285.06;;;12.63;nan
48089;BME280;33867;50.314;7.802;2023-03-19T16:27:48;100286.81;;;12.98;nan
48089;BME280;33867;50.314;7.802;2023-03-19T16:31:20;100290.91;;;13.02;nan
48089;BME280;33867;50.314;7.802;2023-03-19T16:34:43;100297.75;;;13.23;nan
48089;BME280;33867;50.314;7.802;2023-03-19T16:38:19;100292.06;;;13.34;nan
48089;BME280;33867;50.314;7.802;2023-03-19T16:41:40;100292.97;;;13.42;nan
48089;BME280;33867;50.314;7.802;2023-03-19T16:48:55;100297.63;;;12.98;nan
48089;BME280;33867;50.314;7.802;2023-03-19T16:52:18;100298.28;;;13.00;nan
48089;BME280;33867;50.314;7.802;2023-03-19T16:55:37;100304.94;;;13.06;nan
48089;BME280;33867;50.314;7.802;2023-03-19T16:58:56;100301.88;;;12.75;nan
48089;BME280;33867;50.314;7.802;2023-03-19T17:02:17;100314.78;;;12.63;nan
48089;BME280;33867;50.314;7.802;2023-03-19T17:05:36;100318.94;;;12.32;nan
48089;BME280;33867;50.314;7.802;2023-03-19T17:08:55;100320.41;;;12.26;nan
48089;BME280;33867;50.314;7.802;2023-03-19T17:12:15;100320.47;;;11.98;nan
48089;BME280;33867;50.314;7.802;2023-03-19T17:15:37;100323.78;;;11.92;nan
48089;BME280;33867;50.314;7.802;2023-03-19T17:18:58;100327.28;;;11.75;nan
48089;BME280;33867;50.314;7.802;2023-03-19T17:22:17;100332.78;;;11.56;nan
48089;BME280;33867;50.314;7.802;2023-03-19T17:25:36;100336.81;;;11.69;nan
48089;BME280;33867;50.314;7.802;2023-03-19T17:28:55;100344.13;;;11.32;nan
48089;BME280;33867;50.314;7.802;2023-03-19T17:32:16;100346.50;;;10.98;nan
48089;BME280;33867;50.314;7.802;2023-03-19T17:35:36;100354.50;;;10.80;nan
48089;BME280;33867;50.314;7.802;2023-03-19T17:38:56;100350.84;;;10.62;nan
48089;BME280;33867;50.314;7.802;2023-03-19T17:42:17;100351.69;;;10.62;nan
48089;BME280;33867;50.314;7.802;2023-03-19T17:45:40;100351.84;;;10.70;nan
48089;BME280;33867;50.314;7.802;2023-03-19T17:49:00;100363.91;;;10.57;nan
48089;BME280;33867;50.314;7.802;2023-03-19T17:52:19;100368.03;;;10.22;nan
48089;BME280;33867;50.314;7.802;2023-03-19T17:55:39;100372.13;;;10.26;nan
48089;BME280;33867;50.314;7.802;2023-03-19T17:58:58;100387.13;;;10.38;nan
48089;BME280;33867;50.314;7.802;2023-03-19T18:02:27;100372.94;;;10.07;nan
48089;BME280;33867;50.314;7.802;2023-03-19T18:05:46;100374.91;;;10.05;nan
48089;BME280;33867;50.314;7.802;2023-03-19T18:09:05;100375.50;;;10.28;nan
48089;BME280;33867;50.314;7.802;2023-03-19T18:12:24;100383.88;;;10.44;nan
48089;BME280;33867;50.314;7.802;2023-03-19T18:15:44;100391.81;;;10.56;nan
48089;BME280;33867;50.314;7.802;2023-03-19T18:19:30;100395.34;;;10.27;nan
48089;BME280;33867;50.314;7.802;2023-03-19T18:22:48;100402.63;;;10.06;nan
48089;BME280;33867;50.314;7.802;2023-03-19T18:26:07;100398.41;;;10.13;nan
48089;BME280;33867;50.314;7.802;2023-03-19T18:29:26;100409.78;;;10.26;nan
48089;BME280;33867;50.314;7.802;2023-03-19T18:32:51;100408.88;;;10.06;nan
48089;BME280;33867;50.314;7.802;2023-03-19T18:36:16;100417.56;;;9.70;nan
48089;BME280;33867;50.314;7.802;2023-03-19T18:39:36;100422.19;;;9.58;nan
48089;BME280;33867;50.314;7.802;2023-03-19T18:42:56;100412.09;;;9.41;nan
48089;BME280;33867;50.314;7.802;2023-03-19T18:46:22;100429.81;;;9.53;nan
48089;BME280;33867;50.314;7.802;2023-03-19T18:49:43;100434.84;;;9.77;nan
48089;BME280;33867;50.314;7.802;2023-03-19T18:53:03;100440.00;;;9.49;nan
48089;BME280;33867;50.314;7.802;2023-03-19T18:56:29;100441.22;;;9.45;nan
48089;BME280;33867;50.314;7.802;2023-03-19T19:00:00;100449.97;;;9.37;nan
48089;BME280;33867;50.314;7.802;2023-03-19T19:03:30;100455.09;;;9.41;nan
48089;BME280;33867;50.314;7.802;2023-03-19T19:06:51;100461.66;;;9.27;nan
48089;BME280;33867;50.314;7.802;2023-03-19T19:10:10;100478.44;;;9.19;nan
48089;BME280;33867;50.314;7.802;2023-03-19T19:13:32;100476.47;;;9.21;nan
48089;BME280;33867;50.314;7.802;2023-03-19T19:16:53;100475.94;;;9.48;nan
48089;BME280;33867;50.314;7.802;2023-03-19T19:20:39;100475.31;;;9.45;nan
48089;BME280;33867;50.314;7.802;2023-03-19T19:24:14;100481.66;;;9.64;nan
48089;BME280;33867;50.314;7.802;2023-03-19T19:27:38;100481.00;;;9.82;nan
48089;BME280;33867;50.314;7.802;2023-03-19T19:31:00;100479.31;;;9.81;nan
48089;BME280;33867;50.314;7.802;2023-03-19T19:34:21;100486.81;;;9.77;nan
48089;BME280;33867;50.314;7.802;2023-03-19T19:37:40;100487.56;;;9.89;nan
48089;BME280;33867;50.314;7.802;2023-03-19T19:40:59;100484.75;;;10.00;nan
48089;BME280;33867;50.314;7.802;2023-03-19T19:44:18;100491.56;;;9.94;nan
48089;BME280;33867;50.314;7.802;2023-03-19T19:47:39;100493.25;;;9.95;nan
48089;BME280;33867;50.314;7.802;2023-03-19T19:51:01;100500.28;;;9.87;nan
48089;BME280;33867;50.314;7.802;2023-03-19T19:54:20;100500.81;;;9.81;nan